Time;durP1;ratioP1;P1;durP2;ratioP2;P2;SDS_P1;SDS_P2;PMS_P1;PMS_P2;Temp;Humidity;BMP_temperature;BMP_pressure;BME280_temperature;BME280_humidity;BME280_pressure;Samples;Min_cycle;Max_cycle;Signal;HPM_P1;HPM_P2
2023/04/14 06:09:47;;;;;;;;;1.50;1.50;;;;;17.68;44.05;100483.06;5112613;27;46057;-76
2023/04/14 06:12:13;;;;;;;;;2.00;1.00;;;;;18.26;44.91;100483.34;5109404;27;45307;-76
2023/04/14 06:14:38;;;;;;;;;0.50;0.50;;;;;19.08;45.32;100470.47;5109068;27;45507;-76
2023/04/14 06:17:03;;;;;;;;;2.00;2.00;;;;;19.98;45.23;100462.84;5099070;27;45367;-77
2023/04/14 06:19:29;;;;;;;;;0.50;0.50;;;;;20.83;45.11;100468.84;5100023;27;46239;-77
2023/04/14 06:21:54;;;;;;;;;1.00;1.00;;;;;21.55;44.38;100462.41;5109672;27;45716;-77
2023/04/14 06:24:19;;;;;;;;;1.00;0.33;;;;;22.17;43.53;100463.13;5107542;27;57576;-77
2023/04/14 06:26:45;;;;;;;;;1.00;1.00;;;;;22.73;43.21;100468.75;5108672;27;53105;-77
2023/04/14 06:29:10;;;;;;;;;3.00;2.00;;;;;23.21;42.72;100464.50;5108905;27;46816;-77
2023/04/14 06:31:36;;;;;;;;;1.00;1.00;;;;;23.62;42.66;100466.25;5108340;27;45341;-76
2023/04/14 06:34:01;;;;;;;;;4.00;0.67;;;;;23.96;41.94;100456.94;5109223;27;45314;-77
2023/04/14 06:36:27;;;;;;;;;0.00;0.00;;;;;24.28;41.41;100459.63;5108871;27;45421;-77
2023/04/14 06:38:53;;;;;;;;;1.00;1.00;;;;;24.54;41.08;100456.56;5105838;27;46880;-83
2023/04/14 06:41:18;;;;;;;;;1.33;1.33;;;;;24.80;40.60;100457.19;5103424;27;45473;-80
2023/04/14 06:43:43;;;;;;;;;1.00;1.00;;;;;24.96;40.41;100454.31;5110763;27;45619;-83
2023/04/14 06:46:09;;;;;;;;;1.67;1.67;;;;;25.13;39.90;100449.56;5109136;27;45583;-83
2023/04/14 06:48:34;;;;;;;;;1.67;1.67;;;;;25.26;39.91;100453.50;5109228;27;45471;-83
2023/04/14 06:50:59;;;;;;;;;2.00;1.00;;;;;25.39;39.50;100436.56;5108992;27;45449;-82
2023/04/14 06:53:25;;;;;;;;;2.67;1.33;;;;;25.49;39.17;100428.94;5103931;27;55566;-81
2023/04/14 06:55:57;;;;;;;;;0.00;0.00;;;;;25.60;39.07;100433.09;5104602;27;45794;-81
2023/04/14 06:58:23;;;;;;;;;1.00;1.00;;;;;25.71;38.74;100437.16;5095862;27;45971;-82
2023/04/14 07:00:56;;;;;;;;;1.00;0.00;;;;;25.79;38.58;100437.06;5108734;27;45635;-80
2023/04/14 07:03:22;;;;;;;;;1.00;1.00;;;;;25.85;38.76;100434.63;5094121;27;46040;-81
2023/04/14 07:05:47;;;;;;;;;1.00;1.00;;;;;25.95;38.23;100429.72;5104630;27;45872;-79
2023/04/14 07:08:13;;;;;;;;;2.00;0.00;;;;;26.01;38.04;100431.66;5109089;27;45961;-79
2023/04/14 07:10:38;;;;;;;;;0.00;0.00;;;;;26.08;38.26;100428.19;5108197;27;60505;-78
2023/04/14 07:13:03;;;;;;;;;0.00;0.00;;;;;26.14;37.69;100430.09;5110138;27;45970;-78
2023/04/14 07:15:29;;;;;;;;;0.00;0.00;;;;;26.18;37.36;100424.09;5108423;27;45692;-78
2023/04/14 07:17:55;;;;;;;;;0.67;0.67;;;;;26.27;37.61;100429.41;5109282;27;46309;-78
2023/04/14 07:20:20;;;;;;;;;1.67;0.33;;;;;26.35;37.57;100420.31;5098601;27;45476;-79
2023/04/14 07:22:45;;;;;;;;;0.33;0.33;;;;;26.40;37.09;100421.38;5092959;27;45430;-79
2023/04/14 07:25:11;;;;;;;;;3.00;0.00;;;;;26.45;36.91;100426.25;5091722;27;56125;-77
2023/04/14 07:27:36;;;;;;;;;2.00;1.67;;;;;26.50;36.98;100420.22;5093073;27;59886;-81
2023/04/14 07:30:02;;;;;;;;;1.00;1.00;;;;;26.54;37.02;100424.22;5095485;27;45720;-80
2023/04/14 07:32:28;;;;;;;;;0.67;0.67;;;;;26.59;36.57;100416.31;5094055;27;45559;-80
2023/04/14 07:34:53;;;;;;;;;1.00;1.00;;;;;26.62;36.28;100415.06;5093933;27;45472;-81
2023/04/14 07:37:19;;;;;;;;;1.33;1.33;;;;;26.65;36.24;100414.69;5088053;27;45977;-78
2023/04/14 07:39:45;;;;;;;;;1.33;1.00;;;;;26.66;36.68;100406.34;5083340;27;45445;-78
2023/04/14 07:42:11;;;;;;;;;1.00;1.00;;;;;26.68;36.45;100395.22;5075916;27;45522;-78
2023/04/14 07:44:36;;;;;;;;;1.00;1.00;;;;;26.69;35.97;100397.75;5073327;27;46312;-78
2023/04/14 07:47:01;;;;;;;;;1.33;1.00;;;;;26.70;35.45;100391.25;5073375;27;48714;-80
2023/04/14 07:49:27;;;;;;;;;2.00;0.00;;;;;26.72;36.09;100379.34;5074672;27;45621;-80
2023/04/14 07:51:52;;;;;;;;;1.00;1.00;;;;;26.74;35.57;100380.00;5089019;27;49823;-79
2023/04/14 07:54:17;;;;;;;;;1.00;1.00;;;;;26.76;35.49;100386.91;5095314;27;56312;-79
2023/04/14 07:56:42;;;;;;;;;2.00;0.00;;;;;26.77;35.86;100380.41;5094364;27;45556;-79
2023/04/14 07:59:08;;;;;;;;;2.67;1.00;;;;;26.79;35.21;100381.09;5095720;27;45481;-78
2023/04/14 08:01:33;;;;;;;;;1.33;1.00;;;;;26.82;35.34;100374.41;5092946;27;51667;-77
2023/04/14 08:03:58;;;;;;;;;2.00;1.00;;;;;26.82;35.66;100369.78;5086491;27;59806;-77
2023/04/14 08:06:26;;;;;;;;;0.00;0.00;;;;;26.82;34.89;100368.94;5091880;27;45444;-78
2023/04/14 08:08:52;;;;;;;;;2.00;2.00;;;;;26.84;34.72;100375.88;5076257;27;45466;-78
2023/04/14 08:11:18;;;;;;;;;1.00;1.00;;;;;26.87;34.92;100368.34;5095426;27;45493;-78
2023/04/14 08:13:43;;;;;;;;;3.67;3.33;;;;;26.88;34.79;100373.59;5094487;27;45281;-78
2023/04/14 08:16:08;;;;;;;;;1.00;1.00;;;;;26.89;35.10;100364.38;5094664;27;45910;-76
2023/04/14 08:18:34;;;;;;;;;2.33;1.00;;;;;26.91;35.07;100367.75;5091941;27;45814;-77
2023/04/14 08:20:59;;;;;;;;;1.67;1.67;;;;;26.96;35.06;100364.44;5086272;27;45413;-77
2023/04/14 08:23:24;;;;;;;;;1.00;0.67;;;;;27.04;34.57;100366.16;5087447;27;45707;-76
2023/04/14 08:25:50;;;;;;;;;1.00;1.00;;;;;27.11;34.60;100375.22;5093656;27;46129;-79
2023/04/14 08:28:16;;;;;;;;;1.00;1.00;;;;;27.18;34.74;100365.19;5092062;27;45442;-74
2023/04/14 08:30:41;;;;;;;;;3.00;3.00;;;;;27.26;35.07;100363.34;5093055;27;45653;-76
2023/04/14 08:33:06;;;;;;;;;1.00;1.00;;;;;27.29;34.88;100369.22;5092057;27;45491;-76
2023/04/14 08:35:32;;;;;;;;;2.67;1.33;;;;;27.30;34.31;100357.25;5093955;27;48919;-76
2023/04/14 08:37:59;;;;;;;;;2.67;1.00;;;;;27.26;34.12;100356.00;5094676;27;45435;-76
2023/04/14 08:40:34;;;;;;;;;1.00;1.00;;;;;27.21;34.55;100355.75;5094856;27;45440;-75
2023/04/14 08:43:00;;;;;;;;;2.00;2.00;;;;;27.23;33.85;100357.22;5094187;27;45824;-76
2023/04/14 08:45:26;;;;;;;;;1.00;1.00;;;;;27.22;33.98;100354.75;5094227;27;45778;-76
2023/04/14 08:47:54;;;;;;;;;1.33;1.00;;;;;27.20;34.31;100349.50;5094563;27;45536;-76
2023/04/14 08:50:23;;;;;;;;;3.00;2.00;;;;;27.21;34.16;100348.44;5084682;27;46472;-75
2023/04/14 08:52:54;;;;;;;;;2.00;2.00;;;;;27.18;33.60;100345.28;5073444;27;46604;-76
2023/04/14 08:55:20;;;;;;;;;1.00;1.00;;;;;27.16;33.69;100342.75;5091500;27;46353;-76
2023/04/14 08:57:47;;;;;;;;;2.33;1.67;;;;;27.19;34.23;100338.78;5089011;27;45847;-76
2023/04/14 09:00:14;;;;;;;;;1.67;1.67;;;;;27.21;34.16;100343.00;5091624;27;45635;-75
2023/04/14 09:02:40;;;;;;;;;3.00;2.00;;;;;27.28;34.16;100331.28;5090521;27;45507;-76
2023/04/14 09:05:06;;;;;;;;;2.67;2.67;;;;;27.33;33.38;100334.22;5089417;27;47046;-75
2023/04/14 09:07:32;;;;;;;;;0.67;0.67;;;;;27.38;33.43;100325.44;5092927;27;45515;-75
2023/04/14 09:09:58;;;;;;;;;1.00;1.00;;;;;27.44;34.00;100325.47;5094299;27;45454;-75
2023/04/14 09:12:26;;;;;;;;;1.00;1.00;;;;;27.48;34.08;100329.47;5093245;27;45342;-75
2023/04/14 09:14:52;;;;;;;;;1.00;1.00;;;;;27.54;33.94;100322.34;5094031;27;46099;-75
2023/04/14 09:17:18;;;;;;;;;3.00;1.00;;;;;27.58;33.56;100317.31;5081936;27;45515;-74
2023/04/14 09:19:44;;;;;;;;;1.67;1.00;;;;;27.63;33.27;100309.41;5093108;27;45515;-74
2023/04/14 09:22:09;;;;;;;;;0.67;0.67;;;;;27.67;33.76;100312.56;5093148;27;45691;-74
2023/04/14 09:24:35;;;;;;;;;2.00;2.00;;;;;27.70;33.20;100310.25;5086727;27;45885;-75
2023/04/14 09:27:03;;;;;;;;;1.00;1.00;;;;;27.74;33.21;100308.78;5086203;27;45465;-79
2023/04/14 09:29:29;;;;;;;;;0.00;0.00;;;;;27.77;33.23;100296.63;5089966;27;45401;-77
2023/04/14 09:31:55;;;;;;;;;0.00;0.00;;;;;27.81;33.34;100292.44;5086330;27;45381;-78
2023/04/14 09:34:20;;;;;;;;;2.00;2.00;;;;;27.84;33.06;100291.19;5087593;27;46071;-80
2023/04/14 09:37:05;;;;;;;;;1.67;1.00;;;;;27.87;33.60;100286.13;5086799;27;53578;-81
2023/04/14 09:39:35;;;;;;;;;1.00;0.67;;;;;27.86;33.50;100279.00;5082862;27;45392;-78
2023/04/14 09:42:02;;;;;;;;;1.00;1.00;;;;;27.86;33.66;100275.44;5093538;27;45422;-78
2023/04/14 09:44:28;;;;;;;;;1.00;1.00;;;;;27.88;32.96;100276.09;5091723;27;45339;-78
2023/04/14 09:47:04;;;;;;;;;0.00;0.00;;;;;27.89;33.14;100269.56;5094135;27;45348;-78
2023/04/14 09:49:30;;;;;;;;;0.00;0.00;;;;;27.92;33.09;100266.44;5088413;27;45425;-77
2023/04/14 09:52:05;;;;;;;;;1.50;1.00;;;;;27.93;33.02;100261.81;5090650;27;45402;-78
2023/04/14 09:54:30;;;;;;;;;1.00;1.00;;;;;27.95;33.27;100257.81;5093508;27;45499;-78
2023/04/14 09:56:56;;;;;;;;;0.67;0.67;;;;;27.96;33.47;100253.22;5086754;27;45692;-79
2023/04/14 09:59:33;;;;;;;;;0.67;0.67;;;;;27.99;33.03;100263.69;5090917;27;45347;-78
2023/04/14 10:02:02;;;;;;;;;1.00;1.00;;;;;27.99;32.80;100258.22;5094034;27;45478;-79
2023/04/14 10:04:27;;;;;;;;;1.00;1.00;;;;;28.02;32.97;100260.53;5092972;27;45386;-74
2023/04/14 10:06:57;;;;;;;;;0.00;0.00;;;;;28.04;32.85;100246.69;5087755;27;45413;-73
2023/04/14 10:09:23;;;;;;;;;2.00;2.00;;;;;28.06;32.81;100250.03;5081012;27;45550;-74
2023/04/14 10:12:10;;;;;;;;;1.00;1.00;;;;;28.08;33.46;100250.69;5090018;27;45452;-77
2023/04/14 10:14:36;;;;;;;;;2.00;1.00;;;;;28.10;32.88;100243.13;5091113;27;46165;-75
2023/04/14 10:17:01;;;;;;;;;1.00;1.00;;;;;28.14;33.29;100247.97;5092378;27;45396;-75
2023/04/14 10:19:28;;;;;;;;;2.00;1.00;;;;;28.14;32.64;100239.78;5089161;27;45437;-76
2023/04/14 10:21:54;;;;;;;;;1.00;1.00;;;;;28.15;33.40;100240.59;5092051;27;45400;-76
2023/04/14 10:24:20;;;;;;;;;1.00;1.00;;;;;28.15;32.79;100229.69;5091120;27;46770;-76
2023/04/14 10:26:48;;;;;;;;;1.67;0.00;;;;;28.15;33.00;100232.41;5091092;27;56033;-76
2023/04/14 10:29:14;;;;;;;;;0.33;0.33;;;;;28.17;32.63;100229.47;5108949;27;45384;-76
2023/04/14 10:31:42;;;;;;;;;1.00;1.00;;;;;28.17;33.31;100224.88;5087766;27;45511;-78
2023/04/14 10:34:09;;;;;;;;;1.00;1.00;;;;;28.18;32.63;100229.25;5091753;27;46118;-77
2023/04/14 10:36:36;;;;;;;;;1.00;1.00;;;;;28.18;32.96;100215.63;5085610;27;45387;-77
2023/04/14 10:39:04;;;;;;;;;1.00;0.00;;;;;28.18;33.13;100204.72;5101991;27;45451;-76
2023/04/14 10:41:41;;;;;;;;;0.00;0.00;;;;;28.13;32.71;100196.31;5092908;27;45408;-76
2023/04/14 10:44:27;;;;;;;;;0.00;0.00;;;;;28.07;32.69;100192.56;5092262;27;45680;-76
2023/04/14 10:46:55;;;;;;;;;1.00;0.00;;;;;28.01;32.57;100185.22;5092308;27;45919;-77
2023/04/14 10:49:29;;;;;;;;;1.00;1.00;;;;;27.93;31.98;100186.28;5091626;27;45504;-75
2023/04/14 10:51:57;;;;;;;;;1.67;1.00;;;;;27.87;32.15;100184.38;5081074;27;45722;-76
2023/04/14 10:54:23;;;;;;;;;2.00;0.00;;;;;27.81;32.52;100180.66;5097355;27;46704;-75
2023/04/14 10:57:09;;;;;;;;;0.00;0.00;;;;;27.73;32.43;100170.78;5090590;27;46192;-75
2023/04/14 10:59:34;;;;;;;;;2.67;1.00;;;;;27.70;32.40;100176.66;5095886;27;45863;-76
2023/04/14 11:02:00;;;;;;;;;0.67;0.67;;;;;27.65;32.24;100173.72;5087925;27;45523;-76
2023/04/14 11:04:25;;;;;;;;;3.00;3.00;;;;;27.59;32.27;100171.81;5086402;27;45907;-76
2023/04/14 11:06:52;;;;;;;;;1.00;1.00;;;;;27.54;32.44;100168.88;5086574;27;45588;-77
2023/04/14 11:09:37;;;;;;;;;1.00;1.00;;;;;27.55;32.38;100168.66;5084777;27;45498;-75
2023/04/14 11:12:23;;;;;;;;;0.33;0.33;;;;;27.53;32.08;100169.91;5087412;27;45517;-76
2023/04/14 11:14:49;;;;;;;;;1.00;1.00;;;;;27.50;32.38;100165.72;5084572;27;45484;-76
2023/04/14 11:17:20;;;;;;;;;0.00;0.00;;;;;27.48;32.32;100165.09;5085479;27;45315;-76
2023/04/14 11:19:46;;;;;;;;;1.00;1.00;;;;;27.44;31.74;100159.25;5081382;27;45524;-76
2023/04/14 11:22:11;;;;;;;;;1.00;1.00;;;;;27.41;31.91;100151.47;5090757;27;45509;-76
2023/04/14 11:24:38;;;;;;;;;1.00;1.00;;;;;27.39;31.75;100141.84;5094058;27;46985;-76
2023/04/14 11:27:03;;;;;;;;;2.67;2.00;;;;;27.37;31.61;100144.75;5093325;27;45435;-76
2023/04/14 11:29:29;;;;;;;;;1.00;1.00;;;;;27.39;31.84;100144.56;5087058;27;45590;-76
2023/04/14 11:32:05;;;;;;;;;2.33;0.67;;;;;27.39;32.25;100142.69;5094793;27;45484;-76
2023/04/14 11:34:31;;;;;;;;;1.00;1.00;;;;;27.35;31.71;100130.53;5089966;27;46070;-83
2023/04/14 11:36:57;;;;;;;;;2.33;0.67;;;;;27.35;31.80;100134.06;5093553;27;45469;-82
2023/04/14 11:39:23;;;;;;;;;2.00;0.00;;;;;27.37;31.80;100142.03;5087762;27;45502;-82
2023/04/14 11:41:50;;;;;;;;;1.00;1.00;;;;;27.38;31.62;100137.44;5090427;27;45408;-77
2023/04/14 11:44:19;;;;;;;;;2.00;2.00;;;;;27.39;32.25;100144.56;5092592;27;47222;-78
2023/04/14 11:46:45;;;;;;;;;1.00;1.00;;;;;27.43;32.33;100143.09;5095962;27;45478;-78
2023/04/14 11:49:11;;;;;;;;;0.33;0.00;;;;;27.45;31.62;100146.44;5085718;27;45821;-79
2023/04/14 11:51:37;;;;;;;;;0.67;0.67;;;;;27.48;31.72;100148.75;5099498;27;45631;-78
2023/04/14 11:54:03;;;;;;;;;0.67;0.33;;;;;27.52;32.14;100150.00;5095222;27;46339;-78
2023/04/14 11:56:29;;;;;;;;;0.00;0.00;;;;;27.56;32.17;100151.28;5095716;27;45496;-78
2023/04/14 11:59:02;;;;;;;;;1.00;1.00;;;;;27.59;31.85;100155.47;5095002;27;45405;-79
2023/04/14 12:01:28;;;;;;;;;0.00;0.00;;;;;27.64;31.70;100157.56;5096600;27;46873;-80
2023/04/14 12:03:54;;;;;;;;;0.00;0.00;;;;;27.66;31.57;100161.78;5087518;27;47022;-75
2023/04/14 12:06:20;;;;;;;;;0.00;0.00;;;;;27.70;31.74;100154.84;5088299;27;45536;-75
2023/04/14 12:08:53;;;;;;;;;0.00;0.00;;;;;27.74;31.82;100153.38;5094393;27;45445;-75
2023/04/14 12:11:19;;;;;;;;;1.00;1.00;;;;;27.76;32.07;100150.44;5090427;27;45658;-77
2023/04/14 12:13:46;;;;;;;;;1.00;1.00;;;;;27.80;32.26;100148.97;5105389;27;47107;-76
2023/04/14 12:16:12;;;;;;;;;1.00;1.00;;;;;27.83;32.23;100151.25;5092627;27;46582;-77
2023/04/14 12:18:38;;;;;;;;;0.00;0.00;;;;;27.85;31.79;100161.97;5095091;27;45449;-78
2023/04/14 12:21:04;;;;;;;;;0.00;0.00;;;;;27.85;32.23;100154.63;5093299;27;45856;-75
2023/04/14 12:23:37;;;;;;;;;0.00;0.00;;;;;27.90;32.16;100158.63;5087161;27;46961;-76
2023/04/14 12:26:08;;;;;;;;;1.00;1.00;;;;;27.91;32.09;100155.66;5093354;27;45560;-76
2023/04/14 12:28:35;;;;;;;;;0.00;0.00;;;;;27.94;32.27;100141.59;5093885;27;45425;-76
2023/04/14 12:31:02;;;;;;;;;1.00;1.00;;;;;27.95;31.65;100132.38;5086433;27;45434;-77
2023/04/14 12:33:30;;;;;;;;;0.33;0.33;;;;;27.98;31.61;100134.69;5085277;27;47263;-77
2023/04/14 12:36:02;;;;;;;;;4.00;1.00;;;;;28.01;31.87;100138.88;5087455;27;45707;-77
2023/04/14 12:38:28;;;;;;;;;0.00;0.00;;;;;28.01;32.21;100145.16;5083388;27;45573;-77
2023/04/14 12:40:55;;;;;;;;;1.00;1.00;;;;;28.01;31.57;100128.81;5091065;27;45508;-77
2023/04/14 12:43:34;;;;;;;;;0.33;0.33;;;;;28.01;31.64;100138.88;5092701;27;46063;-77
2023/04/14 12:46:02;;;;;;;;;1.00;1.00;;;;;27.99;31.63;100130.03;5084122;27;45554;-77
2023/04/14 12:48:57;;;;;;;;;0.00;0.00;;;;;27.98;31.64;100133.81;5084233;27;45519;-75
2023/04/14 12:51:22;;;;;;;;;2.33;1.33;;;;;27.95;31.44;100135.09;5050762;28;45666;-79
2023/04/14 12:53:52;;;;;;;;;1.67;0.00;;;;;27.95;32.10;100124.19;5029715;28;55246;-80
2023/04/14 12:56:20;;;;;;;;;0.00;0.00;;;;;27.95;31.50;100121.44;5043340;28;45509;-80
2023/04/14 12:58:47;;;;;;;;;0.00;0.00;;;;;27.97;32.31;100122.09;5061332;28;45676;-79
2023/04/14 13:01:16;;;;;;;;;0.00;0.00;;;;;27.99;31.64;100109.06;5047107;28;45679;-79
2023/04/14 13:03:50;;;;;;;;;1.67;0.00;;;;;28.04;31.67;100118.50;5050850;28;46182;-79
2023/04/14 13:06:17;;;;;;;;;0.67;0.67;;;;;28.07;31.54;100120.81;5038152;28;45333;-80
2023/04/14 13:08:46;;;;;;;;;0.00;0.00;;;;;28.08;32.23;100112.38;5050993;28;45494;-76
2023/04/14 13:11:13;;;;;;;;;0.00;0.00;;;;;28.12;32.11;100107.38;5049785;28;45722;-77
2023/04/14 13:13:38;;;;;;;;;0.00;0.00;;;;;28.14;31.85;100111.56;5045127;28;47260;-75
2023/04/14 13:16:04;;;;;;;;;0.00;0.00;;;;;28.16;31.92;100108.63;5040194;28;45439;-77
2023/04/14 13:18:29;;;;;;;;;0.33;0.33;;;;;28.19;31.91;100104.63;5041921;28;45452;-76
2023/04/14 13:20:55;;;;;;;;;1.00;1.00;;;;;28.19;32.00;100101.88;5027424;28;45484;-76
2023/04/14 13:23:23;;;;;;;;;2.00;0.00;;;;;28.20;31.75;100106.28;5037176;28;45492;-75
2023/04/14 13:25:48;;;;;;;;;0.00;0.00;;;;;28.18;31.67;100097.47;5046686;28;45604;-77
2023/04/14 13:28:14;;;;;;;;;0.00;0.00;;;;;28.19;31.83;100090.97;5077134;27;46382;-76
2023/04/14 13:30:43;;;;;;;;;0.00;0.00;;;;;28.21;31.92;100092.44;5092059;27;45508;-75
2023/04/14 13:33:08;;;;;;;;;1.00;1.00;;;;;28.22;31.90;100093.25;5081752;27;46128;-77
2023/04/14 13:35:34;;;;;;;;;2.00;0.33;;;;;28.23;32.27;100087.59;5092063;27;45336;-75
2023/04/14 13:38:00;;;;;;;;;0.00;0.00;;;;;28.24;32.32;100086.56;5093062;27;45501;-77
2023/04/14 13:40:26;;;;;;;;;1.00;1.00;;;;;28.25;31.78;100087.41;5093796;27;45472;-76
2023/04/14 13:42:51;;;;;;;;;0.67;0.00;;;;;28.26;32.15;100081.75;5080535;27;45649;-76
2023/04/14 13:45:17;;;;;;;;;1.67;1.67;;;;;28.26;32.45;100081.75;5091686;27;45527;-76
2023/04/14 13:47:49;;;;;;;;;0.00;0.00;;;;;28.28;32.40;100081.50;5093664;27;45353;-75
2023/04/14 13:50:16;;;;;;;;;1.00;0.00;;;;;28.29;32.24;100077.75;5091064;27;45473;-76
2023/04/14 13:52:41;;;;;;;;;2.00;0.00;;;;;28.31;32.03;100078.34;5085635;27;45613;-78
2023/04/14 13:55:08;;;;;;;;;0.00;0.00;;;;;28.33;31.86;100078.97;5091481;27;60883;-80
2023/04/14 13:57:34;;;;;;;;;0.00;0.00;;;;;28.35;31.85;100076.00;5094054;27;45621;-80
2023/04/14 14:00:00;;;;;;;;;2.00;0.00;;;;;28.34;31.89;100069.75;5092280;27;45702;-80
2023/04/14 14:02:25;;;;;;;;;0.00;0.00;;;;;28.32;32.19;100069.09;5083769;27;47433;-81
2023/04/14 14:04:51;;;;;;;;;1.00;0.00;;;;;28.31;32.00;100064.69;5097677;27;46588;-77
2023/04/14 14:07:16;;;;;;;;;1.00;0.00;;;;;28.27;31.46;100072.50;5093749;27;46493;-79
2023/04/14 14:09:43;;;;;;;;;1.67;1.67;;;;;28.20;31.61;100068.91;5088335;27;45627;-77
2023/04/14 14:12:10;;;;;;;;;0.00;0.00;;;;;28.16;31.43;100062.25;5087037;27;45607;-78
2023/04/14 14:14:36;;;;;;;;;0.33;0.33;;;;;28.12;31.56;100063.72;5093073;27;45407;-77
2023/04/14 14:17:01;;;;;;;;;0.00;0.00;;;;;28.15;31.97;100058.66;5092536;27;45754;-78
2023/04/14 14:19:26;;;;;;;;;0.00;0.00;;;;;28.13;32.11;100051.75;5089805;27;45493;-79
2023/04/14 14:21:52;;;;;;;;;1.00;0.00;;;;;28.17;32.30;100058.44;5083107;27;46034;-78
2023/04/14 14:24:17;;;;;;;;;0.00;0.00;;;;;28.15;32.22;100052.34;5093720;27;45361;-77
2023/04/14 14:26:42;;;;;;;;;0.33;0.00;;;;;28.15;31.52;100060.53;5088470;27;48462;-78
2023/04/14 14:29:07;;;;;;;;;0.00;0.00;;;;;28.15;31.57;100057.81;5076685;27;55382;-80
2023/04/14 14:31:34;;;;;;;;;1.00;1.00;;;;;28.14;32.21;100059.72;5084560;27;46067;-78
2023/04/14 14:33:59;;;;;;;;;0.00;0.00;;;;;28.17;31.56;100054.88;5092450;27;45492;-77
2023/04/14 14:36:26;;;;;;;;;0.67;0.67;;;;;28.20;31.55;100044.34;5093999;27;45571;-82
2023/04/14 14:38:51;;;;;;;;;0.00;0.00;;;;;28.22;32.24;100033.22;5097105;27;45545;-78
2023/04/14 14:41:20;;;;;;;;;0.67;0.67;;;;;28.25;31.75;100041.84;5095293;27;45819;-78
2023/04/14 14:43:45;;;;;;;;;2.00;0.00;;;;;28.29;31.87;100031.34;5097350;27;45382;-78
2023/04/14 14:46:11;;;;;;;;;0.00;0.00;;;;;28.34;31.91;100031.53;5095096;27;50716;-79
2023/04/14 14:48:36;;;;;;;;;0.00;0.00;;;;;28.39;31.99;100030.88;5095228;27;45426;-76
2023/04/14 14:51:01;;;;;;;;;2.00;1.00;;;;;28.44;31.68;100032.94;5093441;27;46607;-76
2023/04/14 14:53:26;;;;;;;;;0.00;0.00;;;;;28.46;32.29;100031.69;5089783;27;45627;-77
2023/04/14 14:55:52;;;;;;;;;1.33;1.33;;;;;28.48;32.15;100029.56;5094531;27;45700;-79
2023/04/14 14:58:17;;;;;;;;;1.00;0.00;;;;;28.44;32.07;100017.41;5096673;27;51290;-80
2023/04/14 15:00:42;;;;;;;;;0.00;0.00;;;;;28.51;32.18;100023.66;5084775;27;60960;-86
2023/04/14 15:03:08;;;;;;;;;0.00;0.00;;;;;28.52;31.40;100019.88;5090702;27;45501;-78
2023/04/14 15:05:33;;;;;;;;;0.00;0.00;;;;;28.53;31.91;100018.81;5085297;27;56892;-73
2023/04/14 15:07:58;;;;;;;;;0.00;0.00;;;;;28.49;32.23;100014.03;5094692;27;45598;-81
2023/04/14 15:10:24;;;;;;;;;2.00;0.00;;;;;28.50;31.85;100012.97;5095539;27;46145;-88
2023/04/14 15:12:50;;;;;;;;;1.00;1.00;;;;;28.50;31.82;100013.81;5096122;27;45861;-84
2023/04/14 15:15:18;;;;;;;;;0.33;0.33;;;;;28.45;32.10;99997.25;5091354;27;45787;-88
2023/04/14 15:17:44;;;;;;;;;0.00;0.00;;;;;28.45;31.80;100001.88;5087248;27;45555;-76
2023/04/14 15:20:10;;;;;;;;;2.33;0.00;;;;;28.51;32.10;100003.72;5096186;27;46082;-79
2023/04/14 15:22:35;;;;;;;;;0.33;0.33;;;;;28.55;32.23;99994.03;5096100;27;45457;-78
2023/04/14 15:25:00;;;;;;;;;1.33;0.00;;;;;28.56;32.33;99998.41;5095776;27;45523;-82
2023/04/14 15:27:26;;;;;;;;;1.00;1.00;;;;;28.63;31.64;99998.38;5093544;27;45609;-79
2023/04/14 15:29:52;;;;;;;;;2.00;0.00;;;;;28.69;31.83;99999.41;5094053;27;45417;-81
2023/04/14 15:32:23;;;;;;;;;0.00;0.00;;;;;28.77;32.00;99994.50;5095915;27;45390;-82
2023/04/14 15:34:49;;;;;;;;;1.67;0.00;;;;;28.90;31.54;99990.84;5093965;27;45667;-83
2023/04/14 15:37:14;;;;;;;;;0.33;0.33;;;;;28.95;31.57;99990.19;5092762;27;45492;-82
2023/04/14 15:39:40;;;;;;;;;0.00;0.00;;;;;29.04;32.21;99988.00;5095533;27;45417;-83
2023/04/14 15:42:05;;;;;;;;;0.33;0.33;;;;;29.12;31.60;99986.88;5086287;27;52707;-74
2023/04/14 15:44:30;;;;;;;;;0.00;0.00;;;;;29.19;31.75;99991.22;5085997;27;45445;-79
2023/04/14 15:46:56;;;;;;;;;0.67;0.67;;;;;29.23;31.55;99991.63;5091429;27;45551;-81
2023/04/14 15:49:21;;;;;;;;;2.00;0.00;;;;;29.26;32.09;99993.06;5094938;27;46932;-80
2023/04/14 15:51:47;;;;;;;;;0.00;0.00;;;;;29.27;31.33;99990.09;5095070;27;45553;-81
2023/04/14 15:54:12;;;;;;;;;0.00;0.00;;;;;29.25;31.30;99988.63;5094914;27;49033;-81
2023/04/14 15:56:38;;;;;;;;;0.00;0.00;;;;;29.27;31.77;99992.00;5094556;27;51241;-80
2023/04/14 15:59:03;;;;;;;;;0.33;0.33;;;;;29.26;31.26;99990.31;5095549;27;45997;-78
2023/04/14 16:01:28;;;;;;;;;0.00;0.00;;;;;29.20;31.98;99986.59;5092865;27;56014;-78
2023/04/14 16:03:54;;;;;;;;;0.00;0.00;;;;;29.22;31.89;99989.09;5092156;27;58689;-75
2023/04/14 16:06:19;;;;;;;;;0.00;0.00;;;;;29.18;31.64;99989.53;5095965;27;45463;-77
2023/04/14 16:08:44;;;;;;;;;0.00;0.00;;;;;29.18;31.72;99994.19;5090066;27;58152;-75
2023/04/14 16:11:16;;;;;;;;;0.00;0.00;;;;;29.20;31.81;99986.59;5089392;27;45415;-75
2023/04/14 16:13:44;;;;;;;;;0.00;0.00;;;;;29.19;31.42;99990.38;5094757;27;45519;-76
2023/04/14 16:16:14;;;;;;;;;0.00;0.00;;;;;29.19;31.58;99983.00;5093985;27;45647;-76
2023/04/14 16:18:39;;;;;;;;;1.00;0.00;;;;;29.26;31.57;99988.41;5094766;27;45649;-75
2023/04/14 16:21:05;;;;;;;;;0.00;0.00;;;;;29.29;31.67;99985.22;5093681;27;45662;-76
2023/04/14 16:23:30;;;;;;;;;1.00;0.00;;;;;29.36;31.34;99996.09;5095434;27;45739;-77
2023/04/14 16:25:56;;;;;;;;;0.00;0.00;;;;;29.43;31.73;99996.03;5091750;27;51862;-79
2023/04/14 16:28:22;;;;;;;;;0.00;0.00;;;;;29.42;31.25;99995.19;5092162;27;46268;-76
2023/04/14 16:30:47;;;;;;;;;0.00;0.00;;;;;29.50;31.65;99998.69;5090023;27;45488;-79
2023/04/14 16:33:13;;;;;;;;;0.33;0.33;;;;;29.43;31.45;99980.44;5094344;27;45437;-84
2023/04/14 16:35:38;;;;;;;;;0.00;0.00;;;;;29.55;31.61;99998.88;5094407;27;45536;-79
2023/04/14 16:38:07;;;;;;;;;3.00;2.00;;;;;29.57;31.12;100010.41;5086934;27;45529;-77
2023/04/14 16:40:36;;;;;;;;;2.00;0.00;;;;;29.53;30.83;100001.00;5086088;27;45404;-79
